Time;durP1;ratioP1;P1;durP2;ratioP2;P2;SDS_P1;SDS_P2;PMS_P1;PMS_P2;Temp;Humidity;BMP_temperature;BMP_pressure;BME280_temperature;BME280_humidity;BME280_pressure;Samples;Min_cycle;Max_cycle;Signal;HPM_P1;HPM_P2
2021/08/31 00:00:02;;;;;;;25.83;17.97;;;;;;;;;;5033211;28;20432;-78
2021/08/31 00:02:27;;;;;;;25.07;17.80;;;;;;;;;;5015819;28;20932;-78
2021/08/31 00:04:53;;;;;;;20.23;17.00;;;;;;;;;;5033417;28;20465;-77
2021/08/31 00:07:19;;;;;;;24.60;18.23;;;;;;;;;;5033391;28;20866;-78
2021/08/31 00:09:47;;;;;;;23.60;17.43;;;;;;;;;;5033083;28;20429;-78
2021/08/31 00:12:13;;;;;;;16.53;14.73;;;;;;;;;;5033321;28;20405;-77
2021/08/31 00:14:39;;;;;;;17.10;14.30;;;;;;;;;;5033153;28;20409;-78
2021/08/31 00:17:06;;;;;;;19.43;14.40;;;;;;;;;;5015875;28;20409;-78
2021/08/31 00:19:32;;;;;;;25.27;16.60;;;;;;;;;;5032605;28;20433;-77
2021/08/31 00:21:58;;;;;;;23.03;14.93;;;;;;;;;;5033454;28;20405;-78
2021/08/31 00:24:24;;;;;;;21.70;16.77;;;;;;;;;;5033294;28;20530;-78
2021/08/31 00:26:50;;;;;;;21.00;15.80;;;;;;;;;;5033008;28;20416;-78
2021/08/31 00:29:16;;;;;;;26.40;18.90;;;;;;;;;;5014969;28;20443;-78
2021/08/31 00:31:42;;;;;;;23.08;17.50;;;;;;;;;;5032945;28;20413;-77
2021/08/31 00:34:08;;;;;;;24.40;16.10;;;;;;;;;;5033071;28;20252;-78
2021/08/31 00:36:34;;;;;;;26.50;15.07;;;;;;;;;;5033068;28;21328;-78
2021/08/31 00:39:00;;;;;;;22.43;16.40;;;;;;;;;;5032522;28;20456;-77
2021/08/31 00:41:26;;;;;;;21.47;16.53;;;;;;;;;;5033724;28;20417;-78
2021/08/31 00:43:52;;;;;;;26.23;17.10;;;;;;;;;;5036823;28;20468;-78
2021/08/31 00:46:19;;;;;;;26.27;16.40;;;;;;;;;;5036949;28;20672;-79
2021/08/31 00:48:46;;;;;;;24.17;17.47;;;;;;;;;;5036586;28;20417;-77
2021/08/31 00:51:12;;;;;;;20.73;16.33;;;;;;;;;;5036899;28;20776;-78
2021/08/31 00:53:39;;;;;;;26.50;16.73;;;;;;;;;;5036676;28;20413;-78
2021/08/31 00:56:05;;;;;;;20.90;15.03;;;;;;;;;;5036741;28;20886;-78
2021/08/31 00:58:32;;;;;;;27.93;16.77;;;;;;;;;;5036593;28;20420;-78
2021/08/31 01:01:02;;;;;;;24.20;16.50;;;;;;;;;;5036738;28;20523;-78
2021/08/31 01:03:28;;;;;;;24.43;16.60;;;;;;;;;;5036716;28;20460;-78
2021/08/31 01:05:56;;;;;;;21.27;16.30;;;;;;;;;;5036516;28;20459;-77
2021/08/31 01:08:22;;;;;;;27.00;17.10;;;;;;;;;;5036650;28;20441;-78
2021/08/31 01:10:48;;;;;;;31.23;18.00;;;;;;;;;;5036209;28;20479;-77
2021/08/31 01:13:17;;;;;;;31.60;17.77;;;;;;;;;;5019030;28;20479;-78
2021/08/31 01:15:44;;;;;;;25.53;18.70;;;;;;;;;;5036627;28;20882;-78
2021/08/31 01:18:14;;;;;;;24.05;17.63;;;;;;;;;;5018893;28;20849;-77
2021/08/31 01:20:41;;;;;;;25.52;18.60;;;;;;;;;;5018401;28;20290;-78
2021/08/31 01:23:07;;;;;;;27.80;17.92;;;;;;;;;;5036243;28;20202;-78
2021/08/31 01:25:33;;;;;;;29.13;17.50;;;;;;;;;;5036157;28;20205;-77
2021/08/31 01:27:59;;;;;;;26.97;18.63;;;;;;;;;;5036154;28;20509;-78
2021/08/31 01:30:25;;;;;;;24.67;15.68;;;;;;;;;;5035778;28;20987;-78
2021/08/31 01:32:51;;;;;;;24.50;17.70;;;;;;;;;;5036322;28;20170;-77
2021/08/31 01:35:17;;;;;;;27.47;17.20;;;;;;;;;;5018503;28;20440;-77
2021/08/31 01:37:43;;;;;;;32.53;19.57;;;;;;;;;;5036071;28;20445;-77
2021/08/31 01:40:09;;;;;;;27.25;17.70;;;;;;;;;;5017659;28;20464;-77
2021/08/31 01:42:35;;;;;;;28.08;18.15;;;;;;;;;;5036044;28;20552;-78
2021/08/31 01:45:01;;;;;;;27.73;19.07;;;;;;;;;;5035999;28;20209;-77
2021/08/31 01:47:27;;;;;;;25.10;18.57;;;;;;;;;;5018479;28;20409;-78
2021/08/31 01:49:53;;;;;;;32.30;17.37;;;;;;;;;;5017769;28;20428;-77
2021/08/31 01:52:19;;;;;;;29.50;18.93;;;;;;;;;;5035202;28;20408;-77
2021/08/31 01:54:45;;;;;;;26.43;16.80;;;;;;;;;;5035807;28;20500;-78
2021/08/31 01:57:11;;;;;;;23.60;15.23;;;;;;;;;;5035679;28;20499;-77
2021/08/31 01:59:37;;;;;;;20.30;15.80;;;;;;;;;;5035144;28;20425;-79
2021/08/31 02:02:03;;;;;;;20.40;14.77;;;;;;;;;;5017774;28;20487;-78
2021/08/31 02:04:32;;;;;;;22.33;14.23;;;;;;;;;;5017628;28;20999;-78
2021/08/31 02:06:58;;;;;;;21.40;15.23;;;;;;;;;;5017806;28;20414;-79
2021/08/31 02:09:24;;;;;;;36.85;17.88;;;;;;;;;;5035206;28;20444;-78
2021/08/31 02:11:50;;;;;;;27.87;16.27;;;;;;;;;;5035595;28;20178;-78
2021/08/31 02:14:16;;;;;;;25.57;18.27;;;;;;;;;;5035217;28;20436;-78
2021/08/31 02:16:42;;;;;;;23.97;16.60;;;;;;;;;;5035625;28;20431;-78
2021/08/31 02:19:08;;;;;;;23.87;16.30;;;;;;;;;;5034901;28;20445;-78
2021/08/31 02:21:34;;;;;;;25.13;16.67;;;;;;;;;;5035240;28;20456;-77
2021/08/31 02:23:59;;;;;;;25.43;18.67;;;;;;;;;;5017645;28;20896;-77
2021/08/31 02:26:30;;;;;;;21.60;15.57;;;;;;;;;;5035183;28;20409;-77
2021/08/31 02:28:56;;;;;;;21.02;15.73;;;;;;;;;;5018285;28;20444;-78
2021/08/31 02:31:22;;;;;;;22.30;13.90;;;;;;;;;;5035338;28;20227;-79
2021/08/31 02:33:48;;;;;;;25.20;16.50;;;;;;;;;;5035281;28;20405;-78
2021/08/31 02:36:14;;;;;;;21.58;16.80;;;;;;;;;;5035082;28;20409;-79
2021/08/31 02:38:40;;;;;;;24.33;15.97;;;;;;;;;;5034519;28;20183;-77
2021/08/31 02:41:06;;;;;;;26.20;17.87;;;;;;;;;;5034787;28;20437;-78
2021/08/31 02:43:32;;;;;;;24.70;18.23;;;;;;;;;;5034850;28;20468;-78
2021/08/31 02:45:58;;;;;;;21.30;15.17;;;;;;;;;;5036285;28;20952;-77
2021/08/31 02:48:24;;;;;;;22.53;15.73;;;;;;;;;;5034892;28;20492;-79
2021/08/31 02:50:50;;;;;;;24.17;15.40;;;;;;;;;;5034330;28;20433;-78
2021/08/31 02:53:16;;;;;;;22.85;16.20;;;;;;;;;;5034734;28;20467;-78
2021/08/31 02:55:42;;;;;;;21.10;15.93;;;;;;;;;;5034787;28;20209;-77
2021/08/31 02:58:08;;;;;;;24.30;16.77;;;;;;;;;;5034684;28;20452;-78
2021/08/31 03:00:36;;;;;;;23.23;17.10;;;;;;;;;;5034102;28;20798;-78
2021/08/31 03:03:02;;;;;;;31.13;18.60;;;;;;;;;;5034253;28;20178;-78
2021/08/31 03:05:28;;;;;;;24.45;16.35;;;;;;;;;;5033753;28;20257;-78
2021/08/31 03:07:54;;;;;;;25.40;18.57;;;;;;;;;;5034452;28;20258;-78
2021/08/31 03:10:21;;;;;;;24.40;16.93;;;;;;;;;;5016478;28;20433;-78
2021/08/31 03:12:47;;;;;;;28.33;17.20;;;;;;;;;;5034387;28;20413;-78
2021/08/31 03:15:13;;;;;;;28.83;19.92;;;;;;;;;;5034274;28;20771;-78
2021/08/31 03:17:39;;;;;;;29.70;19.20;;;;;;;;;;5034125;28;20265;-77
2021/08/31 03:20:05;;;;;;;32.72;19.15;;;;;;;;;;5033742;28;20515;-77
2021/08/31 03:22:31;;;;;;;23.77;17.48;;;;;;;;;;5034097;28;20186;-78
2021/08/31 03:24:57;;;;;;;29.40;19.10;;;;;;;;;;5033849;28;20216;-77
2021/08/31 03:27:23;;;;;;;23.60;17.20;;;;;;;;;;5016382;28;20409;-78
2021/08/31 03:29:49;;;;;;;25.53;18.60;;;;;;;;;;5033636;28;21078;-78
2021/08/31 03:32:15;;;;;;;24.27;17.80;;;;;;;;;;5034028;28;20524;-78
2021/08/31 03:34:41;;;;;;;24.93;15.87;;;;;;;;;;5033891;28;20428;-77
2021/08/31 03:37:07;;;;;;;25.30;17.60;;;;;;;;;;5033654;28;20417;-77
2021/08/31 03:39:36;;;;;;;24.58;17.90;;;;;;;;;;5033325;28;20869;-77
2021/08/31 03:42:02;;;;;;;24.42;18.05;;;;;;;;;;5033696;28;20561;-77
2021/08/31 03:44:28;;;;;;;34.13;18.50;;;;;;;;;;5033722;28;20204;-78
2021/08/31 03:46:54;;;;;;;27.70;17.90;;;;;;;;;;5033596;28;20698;-78
2021/08/31 03:49:20;;;;;;;30.00;18.43;;;;;;;;;;5033043;28;20432;-77
2021/08/31 03:51:46;;;;;;;25.57;17.97;;;;;;;;;;5033558;28;20455;-79
2021/08/31 03:54:12;;;;;;;32.07;21.60;;;;;;;;;;5033472;28;20421;-78
2021/08/31 03:56:38;;;;;;;30.90;21.35;;;;;;;;;;5015783;28;20468;-78
2021/08/31 03:59:05;;;;;;;30.20;20.60;;;;;;;;;;5032909;28;20670;-78
2021/08/31 04:01:31;;;;;;;41.10;24.43;;;;;;;;;;5033365;28;20809;-79
2021/08/31 04:03:57;;;;;;;37.60;23.90;;;;;;;;;;5033359;28;20476;-78
2021/08/31 04:06:23;;;;;;;34.30;22.58;;;;;;;;;;5033466;28;20469;-78
2021/08/31 04:08:49;;;;;;;45.43;30.10;;;;;;;;;;5033219;28;20174;-79
2021/08/31 04:11:15;;;;;;;66.35;31.55;;;;;;;;;;5033234;28;20408;-78
2021/08/31 04:13:41;;;;;;;39.37;26.10;;;;;;;;;;5033383;28;20185;-78
2021/08/31 04:16:07;;;;;;;37.80;25.00;;;;;;;;;;5033250;28;20471;-78
2021/08/31 04:18:34;;;;;;;34.77;25.27;;;;;;;;;;5032787;28;20475;-79
2021/08/31 04:21:00;;;;;;;36.10;22.52;;;;;;;;;;5033200;28;20471;-78
2021/08/31 04:23:26;;;;;;;41.23;26.90;;;;;;;;;;5015301;28;20249;-78
2021/08/31 04:25:52;;;;;;;39.83;27.50;;;;;;;;;;5033216;28;20436;-79
2021/08/31 04:28:18;;;;;;;40.93;25.87;;;;;;;;;;5015708;28;20416;-77
2021/08/31 04:30:44;;;;;;;44.97;26.80;;;;;;;;;;5032687;28;20453;-78
2021/08/31 04:33:10;;;;;;;43.00;24.50;;;;;;;;;;4999379;28;20192;-79
2021/08/31 04:35:36;;;;;;;35.93;22.43;;;;;;;;;;5033149;28;20500;-78
2021/08/31 04:38:02;;;;;;;35.53;21.77;;;;;;;;;;5015407;28;20980;-78
2021/08/31 04:40:28;;;;;;;34.67;23.73;;;;;;;;;;5032457;28;20459;-78
2021/08/31 04:42:55;;;;;;;50.07;28.00;;;;;;;;;;5033162;28;20861;-78
2021/08/31 04:45:21;;;;;;;47.43;28.60;;;;;;;;;;5016719;28;20480;-77
2021/08/31 04:47:47;;;;;;;73.63;32.63;;;;;;;;;;5033497;28;20413;-78
2021/08/31 04:50:13;;;;;;;63.73;33.23;;;;;;;;;;5033557;28;20565;-78
2021/08/31 04:52:39;;;;;;;85.57;36.23;;;;;;;;;;5033800;28;20409;-80
2021/08/31 04:55:05;;;;;;;132.27;51.72;;;;;;;;;;5033245;28;20897;-79
2021/08/31 04:57:31;;;;;;;143.00;47.87;;;;;;;;;;5035001;28;20237;-80
2021/08/31 04:59:57;;;;;;;131.20;49.17;;;;;;;;;;5033596;28;20564;-79
2021/08/31 05:02:23;;;;;;;156.70;51.77;;;;;;;;;;5033612;28;20421;-80
2021/08/31 05:04:49;;;;;;;169.67;53.90;;;;;;;;;;5033803;28;20501;-79
2021/08/31 05:07:15;;;;;;;147.03;56.33;;;;;;;;;;5033287;28;20413;-79
2021/08/31 05:09:42;;;;;;;179.87;55.20;;;;;;;;;;5032690;28;20802;-79
2021/08/31 05:12:08;;;;;;;199.10;61.00;;;;;;;;;;5035694;28;20409;-79
2021/08/31 05:14:35;;;;;;;222.40;62.00;;;;;;;;;;5033576;28;20413;-79
2021/08/31 05:17:01;;;;;;;180.03;55.90;;;;;;;;;;5032655;28;20413;-80
2021/08/31 05:19:27;;;;;;;158.33;52.57;;;;;;;;;;5032203;28;20464;-79
2021/08/31 05:21:53;;;;;;;169.87;53.20;;;;;;;;;;5032694;28;20983;-78
2021/08/31 05:24:19;;;;;;;150.77;51.73;;;;;;;;;;5032737;28;20809;-79
2021/08/31 05:26:45;;;;;;;139.27;51.73;;;;;;;;;;5032705;28;20936;-78
2021/08/31 05:29:11;;;;;;;227.53;58.67;;;;;;;;;;5035640;28;20396;-79
2021/08/31 05:31:37;;;;;;;211.70;57.20;;;;;;;;;;5036247;28;20419;-79
2021/08/31 05:34:03;;;;;;;139.67;51.80;;;;;;;;;;5035920;28;20417;-79
2021/08/31 05:36:29;;;;;;;157.60;53.33;;;;;;;;;;5036094;28;20412;-80
2021/08/31 05:38:55;;;;;;;179.73;54.57;;;;;;;;;;5035589;28;20900;-80
2021/08/31 05:41:21;;;;;;;237.13;59.80;;;;;;;;;;5017953;28;20440;-79
2021/08/31 05:43:47;;;;;;;201.03;56.67;;;;;;;;;;5017991;28;20460;-79
2021/08/31 05:46:13;;;;;;;360.73;69.57;;;;;;;;;;5035840;28;20432;-79
2021/08/31 05:48:39;;;;;;;385.97;71.70;;;;;;;;;;5035557;28;20466;-80
2021/08/31 05:51:08;;;;;;;333.90;68.17;;;;;;;;;;5018189;28;20425;-79
2021/08/31 05:53:34;;;;;;;309.43;69.07;;;;;;;;;;5018144;28;20384;-78
2021/08/31 05:56:00;;;;;;;305.33;66.47;;;;;;;;;;5035038;28;20423;-80
2021/08/31 05:58:26;;;;;;;239.27;59.87;;;;;;;;;;5035142;28;20448;-79
2021/08/31 06:00:52;;;;;;;304.50;65.33;;;;;;;;;;5034882;28;20834;-78
2021/08/31 06:03:18;;;;;;;261.40;64.87;;;;;;;;;;5035468;28;20424;-78
2021/08/31 06:05:44;;;;;;;419.77;71.57;;;;;;;;;;5035497;28;20421;-80
2021/08/31 06:08:10;;;;;;;286.73;65.20;;;;;;;;;;5034964;28;20424;-79
2021/08/31 06:10:36;;;;;;;335.17;70.50;;;;;;;;;;5034842;28;20452;-78
2021/08/31 06:13:02;;;;;;;278.23;68.17;;;;;;;;;;5035674;28;20405;-79
2021/08/31 06:15:28;;;;;;;338.30;69.73;;;;;;;;;;5035631;28;20401;-79
2021/08/31 06:17:54;;;;;;;314.57;67.70;;;;;;;;;;5035620;28;20405;-78
2021/08/31 06:20:21;;;;;;;330.00;73.43;;;;;;;;;;5035453;28;20850;-79
2021/08/31 06:22:47;;;;;;;255.57;66.50;;;;;;;;;;5018703;28;20412;-79
2021/08/31 06:25:13;;;;;;;317.63;73.87;;;;;;;;;;5037415;28;20476;-80
2021/08/31 06:27:38;;;;;;;342.93;73.20;;;;;;;;;;5035292;28;20456;-79
2021/08/31 06:30:05;;;;;;;343.10;77.63;;;;;;;;;;5034972;28;20516;-79
2021/08/31 06:32:31;;;;;;;432.60;82.97;;;;;;;;;;5035183;28;20848;-80
2021/08/31 06:34:57;;;;;;;306.97;80.53;;;;;;;;;;5017605;28;20917;-80
2021/08/31 06:37:23;;;;;;;287.53;71.30;;;;;;;;;;5035272;28;20421;-80
2021/08/31 06:39:49;;;;;;;255.00;71.10;;;;;;;;;;5033539;28;20479;-79
2021/08/31 06:42:15;;;;;;;264.13;72.00;;;;;;;;;;5036937;28;20945;-81
2021/08/31 06:44:41;;;;;;;266.97;71.60;;;;;;;;;;5036725;28;20443;-80
2021/08/31 06:47:07;;;;;;;313.70;75.50;;;;;;;;;;5036080;28;20409;-80
2021/08/31 06:49:34;;;;;;;363.40;80.20;;;;;;;;;;5017979;28;20440;-79
2021/08/31 06:52:02;;;;;;;308.30;75.07;;;;;;;;;;5017483;28;20913;-78
2021/08/31 06:54:28;;;;;;;258.30;71.53;;;;;;;;;;5035240;28;20405;-80
2021/08/31 06:56:54;;;;;;;324.97;72.27;;;;;;;;;;5034768;28;20417;-80
2021/08/31 06:59:20;;;;;;;275.00;72.10;;;;;;;;;;5034458;28;20441;-80
2021/08/31 07:01:46;;;;;;;306.23;71.20;;;;;;;;;;5034687;28;20917;-81
2021/08/31 07:04:12;;;;;;;266.53;63.80;;;;;;;;;;5034531;28;20528;-79
2021/08/31 07:06:38;;;;;;;246.20;64.43;;;;;;;;;;5034401;28;20882;-79
2021/08/31 07:09:05;;;;;;;262.87;66.77;;;;;;;;;;5034302;28;20482;-79
2021/08/31 07:11:31;;;;;;;240.50;62.17;;;;;;;;;;5034718;28;20428;-80
2021/08/31 07:14:00;;;;;;;229.67;60.07;;;;;;;;;;5017432;28;20417;-79
2021/08/31 07:16:26;;;;;;;246.77;66.13;;;;;;;;;;5034501;28;20413;-81
2021/08/31 07:18:52;;;;;;;265.90;69.10;;;;;;;;;;5033962;28;20494;-80
2021/08/31 07:21:18;;;;;;;252.70;67.00;;;;;;;;;;5034540;28;20417;-80
2021/08/31 07:23:44;;;;;;;247.50;67.60;;;;;;;;;;5016890;28;20519;-80
2021/08/31 07:26:10;;;;;;;289.07;71.70;;;;;;;;;;5034529;28;20456;-79
2021/08/31 07:28:36;;;;;;;251.33;70.90;;;;;;;;;;5017145;28;20409;-80
2021/08/31 07:31:03;;;;;;;199.73;61.77;;;;;;;;;;5016663;28;20563;-80
2021/08/31 07:33:29;;;;;;;200.07;67.17;;;;;;;;;;5016486;28;21032;-80
2021/08/31 07:35:55;;;;;;;212.93;68.07;;;;;;;;;;5034534;28;20479;-79
2021/08/31 07:38:21;;;;;;;216.17;69.93;;;;;;;;;;5034756;28;20441;-78
2021/08/31 07:40:47;;;;;;;199.57;64.23;;;;;;;;;;5033595;28;20544;-80
2021/08/31 07:43:13;;;;;;;166.27;59.20;;;;;;;;;;5015911;28;20527;-80
2021/08/31 07:45:39;;;;;;;160.77;60.40;;;;;;;;;;5033901;28;20460;-80
2021/08/31 07:48:06;;;;;;;142.30;56.20;;;;;;;;;;5033821;28;20427;-80
2021/08/31 07:50:32;;;;;;;135.93;57.70;;;;;;;;;;5033008;28;20444;-78
2021/08/31 07:52:58;;;;;;;159.47;60.40;;;;;;;;;;5016265;28;20928;-80
2021/08/31 07:55:24;;;;;;;147.27;56.60;;;;;;;;;;5016296;28;20504;-78
2021/08/31 07:57:50;;;;;;;133.63;55.90;;;;;;;;;;5033552;28;20452;-77
2021/08/31 08:00:17;;;;;;;126.07;55.13;;;;;;;;;;5033067;28;20803;-81
2021/08/31 08:02:43;;;;;;;116.10;54.90;;;;;;;;;;5033108;28;20416;-80
2021/08/31 08:05:10;;;;;;;114.93;56.07;;;;;;;;;;5033122;28;20431;-80
2021/08/31 08:07:36;;;;;;;109.20;54.57;;;;;;;;;;5015984;28;20409;-79
2021/08/31 08:10:03;;;;;;;107.00;54.57;;;;;;;;;;5015469;28;20440;-78
2021/08/31 08:12:29;;;;;;;93.30;52.07;;;;;;;;;;5033398;28;20430;-80
2021/08/31 08:14:55;;;;;;;88.57;47.73;;;;;;;;;;5033268;28;20478;-79
2021/08/31 08:17:22;;;;;;;88.43;48.03;;;;;;;;;;5033655;28;20858;-79
2021/08/31 08:19:48;;;;;;;79.60;46.17;;;;;;;;;;5032289;28;20441;-77
2021/08/31 08:22:15;;;;;;;80.37;45.77;;;;;;;;;;5015342;28;20421;-78
2021/08/31 08:24:41;;;;;;;80.40;45.87;;;;;;;;;;5014721;28;20491;-78
2021/08/31 08:27:07;;;;;;;79.47;47.03;;;;;;;;;;5032563;28;20405;-78
2021/08/31 08:29:37;;;;;;;78.53;47.47;;;;;;;;;;5032513;28;20429;-78
2021/08/31 08:32:04;;;;;;;84.90;47.20;;;;;;;;;;5033103;28;20413;-78
2021/08/31 08:34:30;;;;;;;81.63;48.37;;;;;;;;;;5033135;28;20804;-79
2021/08/31 08:36:57;;;;;;;78.73;43.20;;;;;;;;;;5033045;28;20447;-79
2021/08/31 08:39:23;;;;;;;66.27;44.70;;;;;;;;;;5015140;28;20452;-79
2021/08/31 08:41:49;;;;;;;62.40;43.00;;;;;;;;;;5033204;28;20516;-78
2021/08/31 08:44:15;;;;;;;61.87;43.07;;;;;;;;;;5032291;28;20460;-79
2021/08/31 08:46:43;;;;;;;67.70;46.73;;;;;;;;;;5015228;28;20421;-78
2021/08/31 08:49:12;;;;;;;62.13;43.23;;;;;;;;;;5032428;28;20766;-78
2021/08/31 08:51:38;;;;;;;57.60;41.93;;;;;;;;;;5014566;28;20429;-80
2021/08/31 08:54:06;;;;;;;56.40;42.23;;;;;;;;;;5032426;28;20427;-78
2021/08/31 08:56:32;;;;;;;49.00;37.70;;;;;;;;;;5012073;28;20387;-79
2021/08/31 08:58:58;;;;;;;40.80;32.93;;;;;;;;;;5031971;28;20492;-78
2021/08/31 09:01:39;;;;;;;43.67;30.83;;;;;;;;;;5032133;28;20841;-78
2021/08/31 09:04:05;;;;;;;41.40;30.87;;;;;;;;;;5034360;28;21000;-78
2021/08/31 09:06:31;;;;;;;46.43;29.43;;;;;;;;;;5036290;28;20416;-78
2021/08/31 09:08:58;;;;;;;36.43;29.03;;;;;;;;;;5036219;28;20546;-78
2021/08/31 09:11:26;;;;;;;40.50;31.33;;;;;;;;;;5036557;28;20811;-80
2021/08/31 09:13:52;;;;;;;33.10;28.20;;;;;;;;;;5036355;28;20412;-79
2021/08/31 09:16:26;;;;;;;33.67;28.00;;;;;;;;;;5036697;28;20413;-80
2021/08/31 09:18:53;;;;;;;33.27;27.70;;;;;;;;;;5036244;28;20409;-80
2021/08/31 09:21:23;;;;;;;33.23;26.80;;;;;;;;;;5035938;28;20417;-79
2021/08/31 09:23:50;;;;;;;33.70;30.10;;;;;;;;;;5035789;28;20456;-79
2021/08/31 09:26:18;;;;;;;35.33;29.67;;;;;;;;;;5036094;28;20456;-81
2021/08/31 09:28:45;;;;;;;38.13;31.67;;;;;;;;;;5033035;28;20417;-81
2021/08/31 09:31:13;;;;;;;35.33;29.93;;;;;;;;;;5036392;28;20881;-80
2021/08/31 09:33:40;;;;;;;41.67;31.90;;;;;;;;;;5037393;28;20418;-80
2021/08/31 09:36:09;;;;;;;39.13;33.07;;;;;;;;;;5036746;28;20505;-81
2021/08/31 09:39:07;;;;;;;38.57;31.50;;;;;;;;;;5037300;28;20417;-79
2021/08/31 09:41:33;;;;;;;41.53;31.57;;;;;;;;;;4986850;28;20528;-79
2021/08/31 09:44:00;;;;;;;41.93;32.50;;;;;;;;;;5035744;28;20460;-80
2021/08/31 09:46:44;;;;;;;34.83;28.93;;;;;;;;;;5036695;28;20427;-80
2021/08/31 09:49:17;;;;;;;33.40;27.53;;;;;;;;;;5035969;28;20428;-80
2021/08/31 09:51:58;;;;;;;31.90;26.23;;;;;;;;;;5018917;28;20779;-79
2021/08/31 09:54:24;;;;;;;32.10;25.90;;;;;;;;;;5037673;28;20419;-79
2021/08/31 09:56:50;;;;;;;33.30;25.73;;;;;;;;;;5036650;28;20413;-80
2021/08/31 09:59:17;;;;;;;33.90;25.97;;;;;;;;;;5036132;28;20415;-78
2021/08/31 10:01:43;;;;;;;31.30;25.70;;;;;;;;;;5036553;28;20424;-78
2021/08/31 10:04:09;;;;;;;31.63;26.77;;;;;;;;;;5035575;28;20461;-79
2021/08/31 10:06:35;;;;;;;29.60;24.10;;;;;;;;;;5035564;28;20763;-79
2021/08/31 10:09:01;;;;;;;34.43;24.03;;;;;;;;;;5035031;28;20402;-80
2021/08/31 10:11:28;;;;;;;28.33;21.63;;;;;;;;;;5035423;28;20412;-79
2021/08/31 10:13:54;;;;;;;29.13;21.60;;;;;;;;;;5034989;28;20420;-78
2021/08/31 10:16:21;;;;;;;23.70;19.67;;;;;;;;;;5035248;28;20436;-81
2021/08/31 10:18:47;;;;;;;29.70;20.40;;;;;;;;;;5035022;28;20520;-78
2021/08/31 10:21:14;;;;;;;34.90;26.53;;;;;;;;;;5017562;28;20460;-78
2021/08/31 10:23:44;;;;;;;34.80;25.73;;;;;;;;;;5035342;28;20828;-78
2021/08/31 10:26:26;;;;;;;31.80;25.83;;;;;;;;;;5035264;28;20425;-80
2021/08/31 10:29:12;;;;;;;29.03;23.83;;;;;;;;;;5017367;28;20547;-77
2021/08/31 10:31:38;;;;;;;34.80;23.70;;;;;;;;;;5017287;28;20414;-79
2021/08/31 10:34:23;;;;;;;32.03;23.53;;;;;;;;;;5035234;28;20465;-81
2021/08/31 10:36:59;;;;;;;32.93;23.63;;;;;;;;;;5035169;28;20413;-79
2021/08/31 10:39:44;;;;;;;30.10;23.20;;;;;;;;;;5034444;28;20799;-78
2021/08/31 10:42:11;;;;;;;27.07;19.93;;;;;;;;;;5034846;28;20404;-79
2021/08/31 10:44:41;;;;;;;28.63;21.93;;;;;;;;;;5017090;28;20541;-78
2021/08/31 10:47:07;;;;;;;27.17;21.27;;;;;;;;;;5017317;28;20421;-79
2021/08/31 10:49:48;;;;;;;27.87;20.57;;;;;;;;;;5034624;28;20504;-80
2021/08/31 10:52:14;;;;;;;27.30;21.50;;;;;;;;;;5034776;28;20462;-79
2021/08/31 10:54:46;;;;;;;26.03;20.50;;;;;;;;;;5034569;28;20417;-81
2021/08/31 10:57:31;;;;;;;22.87;19.40;;;;;;;;;;5017119;28;20392;-78
2021/08/31 10:59:56;;;;;;;22.77;18.20;;;;;;;;;;5035011;28;20490;-80
2021/08/31 11:02:41;;;;;;;23.60;18.37;;;;;;;;;;5034408;28;20409;-77
2021/08/31 11:05:19;;;;;;;21.70;18.27;;;;;;;;;;5034381;28;20464;-80
2021/08/31 11:07:45;;;;;;;22.17;17.67;;;;;;;;;;5034588;28;20860;-80
2021/08/31 11:10:11;;;;;;;19.50;16.33;;;;;;;;;;5034062;28;20779;-79
2021/08/31 11:12:37;;;;;;;21.27;15.47;;;;;;;;;;5034358;28;20401;-80
2021/08/31 11:15:05;;;;;;;22.47;15.50;;;;;;;;;;5034448;28;20380;-77
2021/08/31 11:17:35;;;;;;;16.57;12.50;;;;;;;;;;5034379;28;20391;-80
2021/08/31 11:20:14;;;;;;;15.63;11.40;;;;;;;;;;5034120;28;20933;-78
2021/08/31 11:22:40;;;;;;;16.37;11.93;;;;;;;;;;5034238;28;20827;-77
2021/08/31 11:25:06;;;;;;;15.67;12.30;;;;;;;;;;5033620;28;20912;-77
2021/08/31 11:27:48;;;;;;;13.43;10.73;;;;;;;;;;5034255;28;20505;-78
2021/08/31 11:30:14;;;;;;;13.57;9.30;;;;;;;;;;5033764;28;20790;-76
2021/08/31 11:32:40;;;;;;;12.90;8.50;;;;;;;;;;5034059;28;20432;-80
2021/08/31 11:35:07;;;;;;;11.40;9.93;;;;;;;;;;5034329;28;20809;-80
2021/08/31 11:37:33;;;;;;;9.03;7.60;;;;;;;;;;5034219;28;20467;-77
2021/08/31 11:39:59;;;;;;;12.80;9.67;;;;;;;;;;5015979;28;20924;-79
2021/08/31 11:42:26;;;;;;;11.30;9.03;;;;;;;;;;5033915;28;20417;-79
2021/08/31 11:44:58;;;;;;;9.87;8.87;;;;;;;;;;5016116;28;20477;-79
2021/08/31 11:47:27;;;;;;;12.17;8.90;;;;;;;;;;5033995;28;20444;-79
2021/08/31 11:49:59;;;;;;;9.63;8.07;;;;;;;;;;5015821;28;20488;-79
2021/08/31 11:52:25;;;;;;;11.73;8.10;;;;;;;;;;5034101;28;20524;-78
2021/08/31 11:54:55;;;;;;;9.67;8.73;;;;;;;;;;5033513;28;20562;-78
2021/08/31 11:57:22;;;;;;;13.50;9.30;;;;;;;;;;5033751;28;20398;-78
2021/08/31 11:59:51;;;;;;;9.97;8.30;;;;;;;;;;5033386;28;20939;-79
2021/08/31 12:02:26;;;;;;;11.57;8.90;;;;;;;;;;5033739;28;20391;-78
2021/08/31 12:04:58;;;;;;;10.33;8.50;;;;;;;;;;5033415;28;20471;-79
2021/08/31 12:07:24;;;;;;;9.80;7.73;;;;;;;;;;5033540;28;20376;-77
2021/08/31 12:09:51;;;;;;;11.23;8.10;;;;;;;;;;5033027;28;20863;-78
2021/08/31 12:12:17;;;;;;;7.53;6.83;;;;;;;;;;5033814;28;20427;-79
2021/08/31 12:14:46;;;;;;;8.87;7.50;;;;;;;;;;5033251;28;20416;-80
2021/08/31 12:17:12;;;;;;;11.70;8.80;;;;;;;;;;5033191;28;20478;-81
2021/08/31 12:19:43;;;;;;;13.00;9.47;;;;;;;;;;5032823;28;20765;-78
2021/08/31 12:22:10;;;;;;;10.53;8.20;;;;;;;;;;5033407;28;20392;-79
2021/08/31 12:24:36;;;;;;;12.40;7.73;;;;;;;;;;5033670;28;20506;-77
2021/08/31 12:27:28;;;;;;;17.33;9.00;;;;;;;;;;5033756;28;20416;-80
2021/08/31 12:29:56;;;;;;;10.97;7.30;;;;;;;;;;5013210;28;20432;-80
2021/08/31 12:32:29;;;;;;;9.20;8.20;;;;;;;;;;5033479;28;20409;-79
2021/08/31 12:34:56;;;;;;;11.90;7.60;;;;;;;;;;5033480;28;20421;-77
2021/08/31 12:37:33;;;;;;;12.07;7.83;;;;;;;;;;5035535;28;20384;-78
2021/08/31 12:40:14;;;;;;;8.07;7.27;;;;;;;;;;5018769;28;20535;-79
2021/08/31 12:42:40;;;;;;;10.90;8.27;;;;;;;;;;5019484;28;20414;-78
2021/08/31 12:45:06;;;;;;;10.50;6.90;;;;;;;;;;5037261;28;20470;-78
2021/08/31 12:47:33;;;;;;;13.57;7.53;;;;;;;;;;5037435;28;20421;-79
2021/08/31 12:50:12;;;;;;;8.23;6.77;;;;;;;;;;5036980;28;20453;-79
2021/08/31 12:52:39;;;;;;;9.50;6.40;;;;;;;;;;5037415;28;20423;-79
2021/08/31 12:55:15;;;;;;;9.00;6.70;;;;;;;;;;5037048;28;20387;-78
2021/08/31 12:57:41;;;;;;;9.23;6.73;;;;;;;;;;5019403;28;20432;-79
2021/08/31 13:00:24;;;;;;;11.20;7.00;;;;;;;;;;5036778;28;20440;-78
2021/08/31 13:02:55;;;;;;;10.20;5.27;;;;;;;;;;5036680;28;20404;-76
2021/08/31 13:05:25;;;;;;;7.53;5.97;;;;;;;;;;5036664;28;20860;-79
2021/08/31 13:07:51;;;;;;;8.00;5.50;;;;;;;;;;5036846;28;20845;-78
2021/08/31 13:10:18;;;;;;;8.37;5.63;;;;;;;;;;5036377;28;20512;-78
2021/08/31 13:12:45;;;;;;;6.73;5.87;;;;;;;;;;5036653;28;20890;-78
2021/08/31 13:15:11;;;;;;;7.60;4.80;;;;;;;;;;5036500;28;20412;-80
2021/08/31 13:17:37;;;;;;;6.73;5.50;;;;;;;;;;5036269;28;20442;-80
2021/08/31 13:20:04;;;;;;;9.10;5.20;;;;;;;;;;5036180;28;20515;-79
2021/08/31 13:22:29;;;;;;;6.10;5.37;;;;;;;;;;5036432;28;20829;-77
2021/08/31 13:24:55;;;;;;;6.57;5.47;;;;;;;;;;5036581;28;20443;-79
2021/08/31 13:27:21;;;;;;;7.87;4.83;;;;;;;;;;5036421;28;20510;-78
2021/08/31 13:29:47;;;;;;;5.80;4.97;;;;;;;;;;5035851;28;20960;-78
2021/08/31 13:32:13;;;;;;;6.67;5.07;;;;;;;;;;5036341;28;20413;-80
2021/08/31 13:34:39;;;;;;;6.83;5.70;;;;;;;;;;5036289;28;20409;-78
2021/08/31 13:37:05;;;;;;;7.33;5.40;;;;;;;;;;5018570;28;20925;-78
2021/08/31 13:39:31;;;;;;;5.60;4.60;;;;;;;;;;5017902;28;20449;-77
2021/08/31 13:41:57;;;;;;;6.60;5.10;;;;;;;;;;5035795;28;20837;-79
2021/08/31 13:44:23;;;;;;;4.97;4.50;;;;;;;;;;5036079;28;20456;-79
2021/08/31 13:46:49;;;;;;;5.93;5.23;;;;;;;;;;5036211;28;20442;-77
2021/08/31 13:49:15;;;;;;;6.27;5.40;;;;;;;;;;5034775;28;20504;-78
2021/08/31 13:51:41;;;;;;;6.30;5.70;;;;;;;;;;5035773;28;20416;-79
2021/08/31 13:54:08;;;;;;;6.73;5.10;;;;;;;;;;5035264;28;20433;-78
2021/08/31 13:56:34;;;;;;;5.70;4.60;;;;;;;;;;5035393;28;20391;-78
2021/08/31 13:59:00;;;;;;;9.13;5.77;;;;;;;;;;5034769;28;20443;-78
2021/08/31 14:01:26;;;;;;;6.40;5.30;;;;;;;;;;5035121;28;20756;-78
2021/08/31 14:03:52;;;;;;;9.57;5.63;;;;;;;;;;5034748;28;20463;-79
2021/08/31 14:06:18;;;;;;;6.20;5.40;;;;;;;;;;5017411;28;20442;-79
2021/08/31 14:08:44;;;;;;;6.67;5.43;;;;;;;;;;5017095;28;20750;-78
2021/08/31 14:11:10;;;;;;;9.57;5.77;;;;;;;;;;5017843;28;20863;-78
2021/08/31 14:13:36;;;;;;;8.10;5.80;;;;;;;;;;5001456;28;20929;-78
2021/08/31 14:16:03;;;;;;;6.90;5.13;;;;;;;;;;5035338;28;20417;-79
2021/08/31 14:18:29;;;;;;;8.77;5.67;;;;;;;;;;5035218;28;20416;-79